createdAt,value
2023-12-23T00:02:24.639Z,100717.38
2023-12-23T00:04:51.220Z,100722.91
2023-12-23T00:07:17.849Z,100718.53
2023-12-23T00:09:44.499Z,100725.31
2023-12-23T00:12:11.116Z,100722.47
2023-12-23T00:14:38.459Z,100724.28
2023-12-23T00:17:05.272Z,100728.53
2023-12-23T00:19:31.945Z,100733.50
2023-12-23T00:21:58.629Z,100730.41
2023-12-23T00:24:30.684Z,100720.63
2023-12-23T00:26:58.720Z,100718.94
2023-12-23T00:29:26.007Z,100718.94
2023-12-23T00:31:52.585Z,100724.75
2023-12-23T00:34:19.604Z,100723.31
2023-12-23T00:36:46.400Z,100711.88
2023-12-23T00:39:13.705Z,100706.34
2023-12-23T00:41:40.257Z,100704.09
2023-12-23T00:44:06.970Z,100703.53
2023-12-23T00:46:34.086Z,100701.28
2023-12-23T00:49:00.924Z,100702.88
2023-12-23T00:51:27.482Z,100697.50
2023-12-23T00:53:54.015Z,100697.50
2023-12-23T00:56:21.534Z,100710.19
2023-12-23T00:58:48.705Z,100703.44
2023-12-23T01:01:15.554Z,100702.16
2023-12-23T01:03:42.115Z,100701.72
2023-12-23T01:06:08.699Z,100702.28
2023-12-23T01:08:35.193Z,100698.47
2023-12-23T01:11:02.256Z,100689.84
2023-12-23T01:13:28.836Z,100695.53
2023-12-23T01:15:55.657Z,100685.94
2023-12-23T01:18:22.255Z,100697.38
2023-12-23T01:20:48.805Z,100700.06
2023-12-23T01:23:15.418Z,100687.91
2023-12-23T01:25:42.124Z,100693.53
2023-12-23T01:28:08.793Z,100684.75
2023-12-23T01:30:35.299Z,100680.38
2023-12-23T01:33:02.191Z,100683.06
2023-12-23T01:35:28.835Z,100664.53
2023-12-23T01:37:57.100Z,100664.81
2023-12-23T01:40:25.821Z,100654.09
2023-12-23T01:42:52.409Z,100664.25
2023-12-23T01:45:18.932Z,100663.50
2023-12-23T01:47:49.653Z,100669.22
2023-12-23T01:50:18.788Z,100653.38
2023-12-23T01:52:46.123Z,100660.47
2023-12-23T01:55:13.193Z,100649.13
2023-12-23T01:57:40.072Z,100635.09
2023-12-23T02:00:08.534Z,100643.31
2023-12-23T02:02:39.668Z,100641.03
2023-12-23T02:05:07.727Z,100623.94
2023-12-23T02:07:35.958Z,100638.13
2023-12-23T02:10:03.774Z,100614.75
2023-12-23T02:13:12.884Z,100639.94
2023-12-23T02:15:44.248Z,100625.63
2023-12-23T02:18:11.546Z,100637.38
2023-12-23T02:20:38.366Z,100629.31
2023-12-23T02:23:05.545Z,100617.59
2023-12-23T02:25:32.584Z,100618.56
2023-12-23T02:28:06.391Z,100625.47
2023-12-23T02:30:34.792Z,100600.16
2023-12-23T02:33:02.088Z,100602.84
2023-12-23T02:35:28.755Z,100591.94
2023-12-23T02:37:56.246Z,100597.47
2023-12-23T02:40:23.107Z,100598.75
2023-12-23T02:42:50.201Z,100583.47
2023-12-23T02:45:17.114Z,100582.78
2023-12-23T02:47:43.755Z,100581.13
2023-12-23T02:50:10.688Z,100568.94
2023-12-23T02:52:37.218Z,100572.03
2023-12-23T02:55:04.607Z,100565.75
2023-12-23T02:57:31.119Z,100572.38
2023-12-23T02:59:57.597Z,100573.06
2023-12-23T03:02:24.473Z,100561.84
2023-12-23T03:04:51.074Z,100560.56
2023-12-23T03:07:17.655Z,100572.88
2023-12-23T03:09:44.177Z,100560.09
2023-12-23T03:12:10.718Z,100563.34
2023-12-23T03:14:37.260Z,100562.03
2023-12-23T03:17:04.495Z,100545.59
2023-12-23T03:19:31.046Z,100546.44
2023-12-23T03:21:57.535Z,100545.28
2023-12-23T03:24:24.091Z,100542.28
2023-12-23T03:26:50.564Z,100545.00
2023-12-23T03:29:17.144Z,100528.69
2023-12-23T03:31:43.678Z,100540.13
2023-12-23T03:34:10.264Z,100530.75
2023-12-23T03:36:36.847Z,100527.91
2023-12-23T03:39:04.931Z,100519.69
2023-12-23T03:41:31.469Z,100515.69
2023-12-23T03:43:57.962Z,100512.69
2023-12-23T03:46:24.492Z,100495.00
2023-12-23T03:48:50.977Z,100501.94
2023-12-23T03:51:17.641Z,100488.16
2023-12-23T03:53:44.221Z,100507.06
2023-12-23T03:56:10.837Z,100495.19
2023-12-23T03:58:37.601Z,100481.56
2023-12-23T04:01:04.413Z,100499.06
2023-12-23T04:03:31.153Z,100474.38
2023-12-23T04:05:58.178Z,100476.59
2023-12-23T04:08:24.790Z,100464.47
2023-12-23T04:10:51.428Z,100459.09
2023-12-23T04:13:18.175Z,100452.19
2023-12-23T04:15:44.994Z,100444.47
2023-12-23T04:18:11.706Z,100449.50
2023-12-23T04:20:38.239Z,100444.13
2023-12-23T04:23:05.000Z,100432.53
2023-12-23T04:25:31.561Z,100434.88
2023-12-23T04:27:58.138Z,100432.38
2023-12-23T04:30:24.773Z,100432.69
2023-12-23T04:32:51.724Z,100443.81
2023-12-23T04:35:18.571Z,100442.13
2023-12-23T04:37:46.037Z,100428.81
2023-12-23T04:40:13.067Z,100435.91
2023-12-23T04:42:39.649Z,100437.56
2023-12-23T04:45:08.077Z,100409.50
2023-12-23T04:47:34.870Z,100422.28
2023-12-23T04:50:01.569Z,100422.94
2023-12-23T04:52:28.175Z,100417.09
2023-12-23T04:54:54.674Z,100409.88
2023-12-23T04:57:21.161Z,100408.00
2023-12-23T04:59:47.867Z,100411.41
2023-12-23T05:02:14.416Z,100406.34
2023-12-23T05:04:41.057Z,100401.28
2023-12-23T05:07:07.630Z,100408.19
2023-12-23T05:09:35.893Z,100403.66
2023-12-23T05:12:02.425Z,100405.00
2023-12-23T05:14:28.895Z,100391.03
2023-12-23T05:16:55.415Z,100409.41
2023-12-23T05:19:21.969Z,100403.84
2023-12-23T05:21:48.502Z,100392.22
2023-12-23T05:24:15.157Z,100397.09
2023-12-23T05:26:41.610Z,100385.16
2023-12-23T05:29:08.390Z,100391.03
2023-12-23T05:31:35.503Z,100396.59
2023-12-23T05:34:02.196Z,100391.72
2023-12-23T05:36:29.174Z,100391.72
2023-12-23T05:38:55.682Z,100392.69
2023-12-23T05:41:22.337Z,100393.91
2023-12-23T05:43:49.112Z,100392.22
2023-12-23T05:46:15.713Z,100410.75
2023-12-23T05:48:42.394Z,100414.47
2023-12-23T05:51:10.001Z,100408.38
2023-12-23T05:53:36.565Z,100406.34
2023-12-23T05:56:08.177Z,100407.00
2023-12-23T05:58:34.865Z,100410.69
2023-12-23T06:01:01.921Z,100402.25
2023-12-23T06:03:28.777Z,100400.41
2023-12-23T06:05:56.614Z,100392.34
2023-12-23T06:08:23.539Z,100391.50
2023-12-23T06:10:57.473Z,100398.91
2023-12-23T06:13:26.486Z,100418.72
2023-12-23T06:15:53.211Z,100398.22
2023-12-23T06:20:46.257Z,100405.75
2023-12-23T06:23:13.227Z,100404.22
2023-12-23T06:25:39.900Z,100402.38
2023-12-23T06:28:06.668Z,100405.75
2023-12-23T06:30:33.251Z,100399.38
2023-12-23T06:32:59.926Z,100402.59
2023-12-23T06:35:26.618Z,100408.50
2023-12-23T06:37:53.138Z,100399.44
2023-12-23T06:40:19.892Z,100401.41
2023-12-23T06:42:46.451Z,100394.03
2023-12-23T06:45:13.597Z,100398.41
2023-12-23T06:47:40.249Z,100395.56
2023-12-23T06:50:07.480Z,100392.34
2023-12-23T06:52:34.198Z,100390.66
2023-12-23T06:55:00.744Z,100385.25
2023-12-23T06:57:27.226Z,100396.75
2023-12-23T06:59:53.721Z,100381.09
2023-12-23T07:02:20.385Z,100379.25
2023-12-23T07:04:47.440Z,100390.69
2023-12-23T07:07:14.006Z,100390.53
2023-12-23T07:09:40.566Z,100378.75
2023-12-23T07:12:07.397Z,100381.31
2023-12-23T07:14:33.954Z,100382.16
2023-12-23T07:17:01.205Z,100375.59
2023-12-23T07:19:27.759Z,100386.38
2023-12-23T07:21:54.905Z,100388.03
2023-12-23T07:24:21.790Z,100381.84
2023-12-23T07:26:48.467Z,100394.47
2023-12-23T07:29:15.247Z,100403.91
2023-12-23T07:31:41.848Z,100408.09
2023-12-23T07:34:08.788Z,100404.22
2023-12-23T07:36:35.556Z,100403.91
2023-12-23T07:39:02.170Z,100418.91
2023-12-23T07:41:28.739Z,100412.19
2023-12-23T07:43:55.554Z,100399.19
2023-12-23T07:46:22.171Z,100409.81
2023-12-23T07:48:48.815Z,100416.75
2023-12-23T07:51:16.009Z,100407.63
2023-12-23T07:53:42.651Z,100404.31
2023-12-23T07:56:09.415Z,100408.47
2023-12-23T07:58:36.064Z,100411.84
2023-12-23T08:01:02.637Z,100400.75
2023-12-23T08:03:29.280Z,100414.41
2023-12-23T08:05:56.048Z,100410.53
2023-12-23T08:08:22.743Z,100407.84
2023-12-23T08:10:51.519Z,100402.59
2023-12-23T08:13:18.855Z,100405.81
2023-12-23T08:15:45.437Z,100412.91
2023-12-23T08:18:13.280Z,100411.75
2023-12-23T08:20:39.887Z,100413.72
2023-12-23T08:23:06.591Z,100413.59
2023-12-23T08:25:33.447Z,100416.63
2023-12-23T08:28:00.020Z,100419.84
2023-12-23T08:30:26.702Z,100432.63
2023-12-23T08:32:53.723Z,100425.38
2023-12-23T08:35:20.607Z,100427.09
2023-12-23T08:37:47.374Z,100412.44
2023-12-23T08:40:14.155Z,100420.34
2023-12-23T08:42:40.955Z,100415.50
2023-12-23T08:45:07.891Z,100425.94
2023-12-23T08:47:34.573Z,100431.66
2023-12-23T08:50:01.368Z,100435.34
2023-12-23T08:52:28.927Z,100431.97
2023-12-23T08:54:55.554Z,100433.50
2023-12-23T08:57:22.126Z,100435.53
2023-12-23T08:59:48.660Z,100441.59
2023-12-23T09:02:15.213Z,100447.84
2023-12-23T09:04:42.088Z,100454.91
2023-12-23T09:07:09.680Z,100431.50
2023-12-23T09:09:36.340Z,100448.69
2023-12-23T09:12:03.215Z,100466.03
2023-12-23T09:14:31.020Z,100460.81
2023-12-23T09:16:57.643Z,100456.59
2023-12-23T09:19:24.244Z,100460.28
2023-12-23T09:21:50.882Z,100459.47
2023-12-23T09:24:17.493Z,100463.84
2023-12-23T09:26:44.393Z,100460.47
2023-12-23T09:29:12.171Z,100470.41
2023-12-23T09:31:38.730Z,100487.25
2023-12-23T09:34:05.323Z,100489.09
2023-12-23T09:36:31.823Z,100483.38
2023-12-23T09:38:58.291Z,100479.16
2023-12-23T09:41:25.011Z,100482.53
2023-12-23T09:43:53.308Z,100490.44
2023-12-23T09:46:20.873Z,100494.84
2023-12-23T09:48:48.084Z,100494.50
2023-12-23T09:51:17.161Z,100482.72
2023-12-23T09:53:47.385Z,100490.97
2023-12-23T09:56:15.063Z,100482.03
2023-12-23T09:58:44.411Z,100482.88
2023-12-23T10:01:11.172Z,100482.72
2023-12-23T10:03:37.719Z,100483.38
2023-12-23T10:06:04.363Z,100485.09
2023-12-23T10:08:30.953Z,100492.50
2023-12-23T10:10:57.666Z,100495.88
2023-12-23T10:13:24.257Z,100477.84
2023-12-23T10:15:50.866Z,100496.53
2023-12-23T10:18:17.547Z,100481.22
2023-12-23T10:20:44.755Z,100474.97
2023-12-23T10:23:11.608Z,100488.44
2023-12-23T10:25:39.722Z,100482.75
2023-12-23T10:28:09.205Z,100488.13
2023-12-23T10:30:39.710Z,100466.56
2023-12-23T10:33:07.991Z,100480.91
2023-12-23T10:35:46.094Z,100484.25
2023-12-23T10:38:23.829Z,100483.09
2023-12-23T10:41:14.427Z,100488.34
2023-12-23T10:43:42.458Z,100462.91
2023-12-23T10:46:10.028Z,100467.25
2023-12-23T10:48:37.865Z,100463.56
2023-12-23T10:51:05.404Z,100484.13
2023-12-23T10:53:33.053Z,100494.75
2023-12-23T10:55:59.880Z,100489.34
2023-12-23T10:58:28.099Z,100492.72
2023-12-23T11:00:56.398Z,100484.63
2023-12-23T11:03:26.230Z,100498.78
2023-12-23T11:05:54.541Z,100487.84
2023-12-23T11:08:24.001Z,100491.06
2023-12-23T11:10:50.950Z,100493.41
2023-12-23T11:13:20.636Z,100494.28
2023-12-23T11:15:48.115Z,100480.78
2023-12-23T11:18:14.787Z,100491.91
2023-12-23T11:20:50.790Z,100480.81
2023-12-23T11:23:30.232Z,100472.38
2023-12-23T11:25:57.355Z,100484.69
2023-12-23T11:28:27.241Z,100477.81
2023-12-23T11:30:58.957Z,100472.06
2023-12-23T11:33:36.086Z,100478.47
2023-12-23T11:36:03.292Z,100467.69
2023-12-23T11:38:45.211Z,100466.50
2023-12-23T11:41:13.878Z,100464.31
2023-12-23T11:43:51.052Z,100469.53
2023-12-23T11:46:19.506Z,100456.91
2023-12-23T11:48:46.044Z,100447.78
2023-12-23T11:51:12.809Z,100438.88
2023-12-23T11:53:40.745Z,100453.16
2023-12-23T11:56:08.085Z,100449.47
2023-12-23T11:58:34.816Z,100456.56
2023-12-23T12:01:01.486Z,100458.25
2023-12-23T12:03:28.465Z,100467.03
2023-12-23T12:05:56.886Z,100463.16
2023-12-23T12:08:24.223Z,100454.22
2023-12-23T12:10:51.140Z,100445.28
2023-12-23T12:13:17.645Z,100471.75
2023-12-23T12:15:44.257Z,100459.09
2023-12-23T12:18:13.146Z,100466.84
2023-12-23T12:20:39.752Z,100476.78
2023-12-23T12:23:06.268Z,100492.13
2023-12-23T12:25:32.759Z,100483.19
2023-12-23T12:27:59.254Z,100473.09
2023-12-23T12:30:25.764Z,100472.25
2023-12-23T12:32:52.813Z,100474.63
2023-12-23T12:35:19.951Z,100493.00
2023-12-23T12:37:46.670Z,100470.41
2023-12-23T12:40:14.520Z,100470.56
2023-12-23T12:42:48.412Z,100486.25
2023-12-23T12:45:15.508Z,100490.28
2023-12-23T12:47:42.437Z,100480.84
2023-12-23T12:50:09.699Z,100473.09
2023-12-23T12:52:36.866Z,100475.78
2023-12-23T12:55:07.996Z,100468.38
2023-12-23T12:57:34.561Z,100482.19
2023-12-23T13:00:01.242Z,100490.28
2023-12-23T13:02:28.104Z,100488.09
2023-12-23T13:04:55.229Z,100485.56
2023-12-23T13:07:22.146Z,100493.66
2023-12-23T13:09:48.883Z,100485.72
2023-12-23T13:12:17.625Z,100487.44
2023-12-23T13:14:44.656Z,100494.50
2023-12-23T13:17:11.279Z,100484.38
2023-12-23T13:19:41.391Z,100495.53
2023-12-23T13:22:08.029Z,100490.28
2023-12-23T13:24:34.638Z,100494.69
2023-12-23T13:27:01.724Z,100501.75
2023-12-23T13:29:29.275Z,100488.75
2023-12-23T13:31:56.144Z,100497.53
2023-12-23T13:34:22.948Z,100499.41
2023-12-23T13:36:49.885Z,100509.34
2023-12-23T13:39:16.848Z,100494.00
2023-12-23T13:41:46.578Z,100499.22
2023-12-23T13:44:13.584Z,100506.81
2023-12-23T13:46:40.675Z,100502.91
2023-12-23T13:49:08.349Z,100505.28
2023-12-23T13:51:35.165Z,100507.50
2023-12-23T13:54:01.839Z,100506.13
2023-12-23T13:56:28.331Z,100518.44
2023-12-23T13:58:54.873Z,100534.09
2023-12-23T14:01:21.430Z,100536.81
2023-12-23T14:03:48.270Z,100540.84
2023-12-23T14:06:14.889Z,100544.41
2023-12-23T14:08:41.514Z,100541.84
2023-12-23T14:11:08.082Z,100537.50
2023-12-23T14:13:34.591Z,100545.72
2023-12-23T14:16:01.070Z,100535.44
2023-12-23T14:18:27.869Z,100544.72
2023-12-23T14:20:54.462Z,100548.41
2023-12-23T14:23:21.573Z,100543.19
2023-12-23T14:25:48.172Z,100548.75
2023-12-23T14:28:16.791Z,100553.31
2023-12-23T14:30:44.751Z,100552.63
2023-12-23T14:33:11.375Z,100562.72
2023-12-23T14:35:38.092Z,100560.88
2023-12-23T14:38:04.818Z,100570.81
2023-12-23T14:40:31.305Z,100569.81
2023-12-23T14:42:57.864Z,100568.47
2023-12-23T14:45:24.418Z,100567.28
2023-12-23T14:47:51.186Z,100573.69
2023-12-23T14:50:20.698Z,100570.97
2023-12-23T14:52:47.550Z,100573.00
2023-12-23T14:55:15.592Z,100582.09
2023-12-23T14:57:42.183Z,100575.03
2023-12-23T15:00:09.398Z,100575.84
2023-12-23T15:02:36.080Z,100583.94
2023-12-23T15:05:02.861Z,100590.34
2023-12-23T15:07:29.378Z,100590.50
2023-12-23T15:09:55.908Z,100594.91
2023-12-23T15:12:22.434Z,100598.75
2023-12-23T15:14:51.583Z,100601.47
2023-12-23T15:17:18.166Z,100604.16
2023-12-23T15:19:44.627Z,100602.31
2023-12-23T15:22:11.170Z,100608.53
2023-12-23T15:24:37.713Z,100614.09
2023-12-23T15:27:04.481Z,100606.31
2023-12-23T15:29:31.015Z,100619.13
2023-12-23T15:31:57.801Z,100623.53
2023-12-23T15:34:24.474Z,100614.72
2023-12-23T15:36:52.982Z,100626.53
2023-12-23T15:39:22.045Z,100625.38
2023-12-23T15:41:48.774Z,100632.06
2023-12-23T15:44:15.411Z,100623.84
2023-12-23T15:46:41.995Z,100625.50
2023-12-23T15:49:08.500Z,100615.75
2023-12-23T15:51:35.148Z,100632.94
2023-12-23T15:54:01.662Z,100617.59
2023-12-23T15:56:28.391Z,100613.19
2023-12-23T15:58:56.071Z,100614.91
2023-12-23T16:01:22.577Z,100624.69
2023-12-23T16:03:49.109Z,100628.38
2023-12-23T16:06:20.114Z,100622.31
2023-12-23T16:08:47.071Z,100624.16
2023-12-23T16:11:13.726Z,100627.72
2023-12-23T16:13:48.383Z,100628.22
2023-12-23T16:16:15.471Z,100634.63
2023-12-23T16:18:42.214Z,100641.00
2023-12-23T16:21:08.836Z,100632.06
2023-12-23T16:23:35.466Z,100629.69
2023-12-23T16:26:04.789Z,100626.84
2023-12-23T16:28:33.451Z,100617.06
2023-12-23T16:31:00.247Z,100617.06
2023-12-23T16:33:27.054Z,100621.78
2023-12-23T16:35:54.546Z,100628.88
2023-12-23T16:38:21.318Z,100638.13
2023-12-23T16:40:48.035Z,100631.88
2023-12-23T16:43:14.562Z,100633.72
2023-12-23T16:45:41.099Z,100639.81
2023-12-23T16:48:07.972Z,100636.25
2023-12-23T16:50:35.013Z,100638.13
2023-12-23T16:53:01.610Z,100637.09
2023-12-23T16:55:28.222Z,100629.69
2023-12-23T16:57:56.210Z,100624.31
2023-12-23T17:00:22.813Z,100617.59
2023-12-23T17:02:49.578Z,100623.97
2023-12-23T17:05:16.773Z,100632.78
2023-12-23T17:07:43.346Z,100623.97
2023-12-23T17:10:10.328Z,100619.44
2023-12-23T17:12:36.841Z,100618.44
2023-12-23T17:15:03.704Z,100612.22
2023-12-23T17:17:30.409Z,100604.78
2023-12-23T17:19:57.182Z,100619.13
2023-12-23T17:22:25.786Z,100612.88
2023-12-23T17:24:53.433Z,100620.97
2023-12-23T17:27:20.046Z,100605.66
2023-12-23T17:29:46.607Z,100616.44
2023-12-23T17:32:13.286Z,100607.50
2023-12-23T17:34:39.964Z,100617.44
2023-12-23T17:37:07.659Z,100623.53
2023-12-23T17:39:34.179Z,100605.81
2023-12-23T17:42:00.734Z,100623.97
2023-12-23T17:44:27.523Z,100626.69
2023-12-23T17:46:55.517Z,100633.09
2023-12-23T17:49:22.082Z,100631.56
2023-12-23T17:51:48.576Z,100632.03
2023-12-23T17:54:15.151Z,100633.19
2023-12-23T17:56:45.927Z,100640.47
2023-12-23T17:59:12.879Z,100648.69
2023-12-23T18:01:39.468Z,100649.72
2023-12-23T18:04:05.979Z,100639.25
2023-12-23T18:06:32.682Z,100628.28
2023-12-23T18:08:59.195Z,100630.31
2023-12-23T18:11:25.792Z,100621.22
2023-12-23T18:13:53.234Z,100625.97
2023-12-23T18:16:19.798Z,100616.03
2023-12-23T18:18:46.415Z,100627.81
2023-12-23T18:21:13.023Z,100624.97
2023-12-23T18:23:39.540Z,100614.53
2023-12-23T18:26:07.187Z,100627.53
2023-12-23T18:28:33.873Z,100623.00
2023-12-23T18:31:00.522Z,100627.38
2023-12-23T18:33:27.168Z,100621.16
2023-12-23T18:35:53.968Z,100624.84
2023-12-23T18:38:20.601Z,100620.13
2023-12-23T18:40:47.190Z,100612.56
2023-12-23T18:43:13.868Z,100619.13
2023-12-23T18:45:40.455Z,100619.97
2023-12-23T18:48:07.400Z,100601.97
2023-12-23T18:50:37.306Z,100619.81
2023-12-23T18:53:05.017Z,100623.34
2023-12-23T18:55:31.578Z,100627.03
2023-12-23T18:57:58.093Z,100616.44
2023-12-23T19:00:24.725Z,100632.59
2023-12-23T19:02:51.669Z,100625.88
2023-12-23T19:05:19.545Z,100630.03
2023-12-23T19:07:46.172Z,100626.13
2023-12-23T19:10:12.698Z,100631.00
2023-12-23T19:12:39.317Z,100629.31
2023-12-23T19:15:06.406Z,100632.34
2023-12-23T19:17:33.174Z,100639.38
2023-12-23T19:20:03.524Z,100635.53
2023-12-23T19:22:30.117Z,100642.78
2023-12-23T19:24:56.564Z,100641.28
2023-12-23T19:27:23.110Z,100634.03
2023-12-23T19:29:49.609Z,100633.38
2023-12-23T19:32:16.324Z,100635.56
2023-12-23T19:34:43.690Z,100626.50
2023-12-23T19:37:10.233Z,100631.03
2023-12-23T19:39:38.497Z,100628.16
2023-12-23T19:42:06.609Z,100624.78
2023-12-23T19:44:33.534Z,100616.72
2023-12-23T19:47:00.222Z,100610.47
2023-12-23T19:49:27.101Z,100596.16
2023-12-23T19:51:53.605Z,100604.41
2023-12-23T19:54:20.125Z,100610.97
2023-12-23T19:56:46.786Z,100614.50
2023-12-23T19:59:13.498Z,100605.41
2023-12-23T20:01:39.995Z,100614.50
2023-12-23T20:04:06.431Z,100599.84
2023-12-23T20:06:35.165Z,100609.09
2023-12-23T20:09:04.111Z,100608.13
2023-12-23T20:11:30.722Z,100601.88
2023-12-23T20:13:59.016Z,100598.31
2023-12-23T20:16:26.114Z,100598.31
2023-12-23T20:18:53.147Z,100600.34
2023-12-23T20:21:20.918Z,100597.34
2023-12-23T20:23:47.838Z,100586.56
2023-12-23T20:26:14.672Z,100588.72
2023-12-23T20:28:41.339Z,100591.41
2023-12-23T20:31:07.865Z,100587.19
2023-12-23T20:33:34.553Z,100596.13
2023-12-23T20:36:01.928Z,100591.91
2023-12-23T20:38:29.123Z,100592.72
2023-12-23T20:40:56.499Z,100592.72
2023-12-23T20:43:23.260Z,100590.38
2023-12-23T20:45:49.966Z,100588.31
2023-12-23T20:48:16.961Z,100598.09
2023-12-23T20:50:43.796Z,100592.53
2023-12-23T20:53:10.308Z,100598.91
2023-12-23T20:55:36.820Z,100592.53
2023-12-23T20:58:03.303Z,100597.25
2023-12-23T21:00:30.436Z,100592.00
2023-12-23T21:02:57.069Z,100588.84
2023-12-23T21:05:23.684Z,100597.75
2023-12-23T21:07:50.421Z,100602.69
2023-12-23T21:10:17.793Z,100618.84
2023-12-23T21:12:46.576Z,100599.13
2023-12-23T21:15:13.205Z,100598.47
2023-12-23T21:17:39.878Z,100599.28
2023-12-23T21:20:06.992Z,100585.66
2023-12-23T21:22:33.584Z,100575.88
2023-12-23T21:25:00.215Z,100577.88
2023-12-23T21:27:26.725Z,100576.53
2023-12-23T21:29:53.283Z,100571.31
2023-12-23T21:32:19.797Z,100555.16
2023-12-23T21:34:46.745Z,100568.63
2023-12-23T21:37:13.461Z,100565.41
2023-12-23T21:39:40.339Z,100561.53
2023-12-23T21:42:06.895Z,100541.16
2023-12-23T21:44:34.359Z,100554.63
2023-12-23T21:47:00.953Z,100547.25
2023-12-23T21:49:28.520Z,100545.00
2023-12-23T21:51:55.134Z,100544.88
2023-12-23T21:54:21.649Z,100536.25
2023-12-23T21:56:48.141Z,100546.53
2023-12-23T21:59:14.794Z,100554.75
2023-12-23T22:01:41.416Z,100553.91
2023-12-23T22:04:08.008Z,100550.53
2023-12-23T22:06:34.492Z,100554.94
2023-12-23T22:09:00.957Z,100550.53
2023-12-23T22:11:27.539Z,100546.13
2023-12-23T22:13:54.241Z,100554.06
2023-12-23T22:16:20.817Z,100546.31
2023-12-23T22:18:47.370Z,100543.63
2023-12-23T22:21:14.257Z,100534.00
2023-12-23T22:23:41.346Z,100531.00
2023-12-23T22:26:12.147Z,100535.00
2023-12-23T22:28:38.639Z,100531.13
2023-12-23T22:31:05.278Z,100519.69
2023-12-23T22:33:31.905Z,100508.06
2023-12-23T22:35:58.476Z,100501.00
2023-12-23T22:38:25.013Z,100499.47
2023-12-23T22:40:51.912Z,100506.69
2023-12-23T22:43:21.655Z,100496.78
2023-12-23T22:45:48.217Z,100495.75
2023-12-23T22:48:15.001Z,100492.06
2023-12-23T22:50:42.450Z,100496.59
2023-12-23T22:53:08.989Z,100495.28
2023-12-23T22:55:35.558Z,100506.88
2023-12-23T22:58:02.185Z,100506.44
2023-12-23T23:00:30.610Z,100517.34
2023-12-23T23:02:58.059Z,100510.97
2023-12-23T23:05:25.040Z,100522.41
2023-12-23T23:07:51.650Z,100527.81
2023-12-23T23:10:18.212Z,100521.44
2023-12-23T23:12:44.987Z,100521.09
2023-12-23T23:15:12.009Z,100514.88
2023-12-23T23:17:38.559Z,100511.00
2023-12-23T23:20:05.722Z,100515.22
2023-12-23T23:22:32.978Z,100518.59
2023-12-23T23:24:59.588Z,100525.69
2023-12-23T23:27:26.161Z,100520.28
2023-12-23T23:29:53.618Z,100517.75
2023-12-23T23:32:21.049Z,100529.91
2023-12-23T23:34:50.470Z,100532.44
2023-12-23T23:37:19.302Z,100546.75
2023-12-23T23:39:45.843Z,100541.19
2023-12-23T23:42:12.380Z,100536.81
2023-12-23T23:44:39.147Z,100532.97
2023-12-23T23:47:05.788Z,100524.56
2023-12-23T23:49:32.387Z,100529.75
2023-12-23T23:51:58.920Z,100516.47
2023-12-23T23:54:25.416Z,100522.88
2023-12-23T23:56:51.981Z,100512.25
2023-12-23T23:59:18.612Z,100519.50
